createdAt,value
2018-08-20T00:00:05.944Z,82.57
2018-08-20T00:01:05.875Z,82.96
2018-08-20T00:02:05.804Z,83.05
2018-08-20T00:03:05.740Z,82.96
2018-08-20T00:04:05.660Z,83.83
2018-08-20T00:05:05.589Z,84.11
2018-08-20T00:06:05.515Z,84.31
2018-08-20T00:07:05.444Z,84.21
2018-08-20T00:08:05.373Z,84.21
2018-08-20T00:09:05.304Z,84.89
2018-08-20T00:10:05.229Z,83.92
2018-08-20T00:11:05.161Z,84.69
2018-08-20T00:12:05.088Z,83.73
2018-08-20T00:13:05.044Z,84.21
2018-08-20T00:14:04.946Z,84.69
2018-08-20T00:15:04.878Z,84.21
2018-08-20T00:16:04.802Z,83.44
2018-08-20T00:17:04.732Z,82.48
2018-08-20T00:18:04.657Z,81.60
2018-08-20T00:19:04.588Z,83.15
2018-08-20T00:20:04.516Z,82.96
2018-08-20T00:21:04.446Z,82.76
2018-08-20T00:22:04.380Z,83.25
2018-08-20T00:23:04.300Z,81.80
2018-08-20T00:24:04.232Z,81.99
2018-08-20T00:25:04.161Z,80.93
2018-08-20T00:26:04.089Z,81.02
2018-08-20T00:27:04.017Z,81.02
2018-08-20T00:28:03.949Z,81.60
2018-08-20T00:29:03.875Z,81.60
2018-08-20T00:30:03.803Z,81.99
2018-08-20T00:31:03.734Z,82.24
2018-08-20T00:32:03.659Z,82.14
2018-08-20T00:33:03.591Z,81.85
2018-08-20T00:34:03.518Z,82.05
2018-08-20T00:35:03.446Z,82.62
2018-08-20T00:36:03.374Z,83.30
2018-08-20T00:37:03.304Z,84.27
2018-08-20T00:38:03.237Z,83.88
2018-08-20T00:39:03.159Z,84.75
2018-08-20T00:40:03.088Z,84.55
2018-08-20T00:41:03.017Z,84.75
2018-08-20T00:42:02.949Z,84.80
2018-08-20T00:43:02.874Z,84.80
2018-08-20T00:44:02.802Z,85.52
2018-08-20T00:45:02.732Z,85.96
2018-08-20T00:46:02.657Z,86.05
2018-08-20T00:47:02.587Z,85.86
2018-08-20T00:48:02.514Z,86.82
2018-08-20T00:49:02.443Z,86.10
2018-08-20T00:50:02.376Z,86.05
2018-08-20T00:51:02.307Z,84.84
2018-08-20T00:52:02.231Z,84.46
2018-08-20T00:53:02.159Z,84.46
2018-08-20T00:54:02.086Z,85.09
2018-08-20T00:55:02.016Z,85.61
2018-08-20T00:56:01.947Z,86.48
2018-08-20T00:57:01.883Z,87.02
2018-08-20T00:58:01.798Z,86.44
2018-08-20T00:59:01.726Z,87.02
2018-08-20T01:00:01.660Z,87.40
2018-08-20T01:01:01.588Z,87.79
2018-08-20T01:02:01.517Z,88.65
2018-08-20T01:03:01.469Z,87.83
2018-08-20T01:04:01.371Z,87.88
2018-08-20T01:05:01.304Z,87.45
2018-08-20T01:06:01.228Z,87.98
2018-08-20T01:07:01.155Z,88.17
2018-08-20T01:08:01.083Z,89.33
2018-08-20T01:09:01.014Z,89.14
2018-08-20T01:10:00.937Z,88.37
2018-08-20T01:11:00.865Z,88.17
2018-08-20T01:12:00.793Z,88.17
2018-08-20T01:13:00.724Z,87.88
2018-08-20T01:14:00.650Z,87.02
2018-08-20T01:15:00.583Z,86.44
2018-08-20T01:16:00.508Z,86.63
2018-08-20T01:17:00.434Z,86.54
2018-08-20T01:18:00.363Z,87.02
2018-08-20T01:19:00.292Z,88.17
2018-08-20T01:20:00.224Z,87.50
2018-08-20T01:21:00.149Z,88.08
2018-08-20T01:22:00.075Z,88.08
2018-08-20T01:23:00.005Z,88.75
2018-08-20T01:23:59.932Z,88.75
2018-08-20T01:24:59.864Z,89.62
2018-08-20T01:25:59.790Z,89.72
2018-08-20T01:26:59.715Z,89.33
2018-08-20T01:27:59.644Z,89.81
2018-08-20T01:28:59.576Z,89.39
2018-08-20T01:29:59.501Z,89.86
2018-08-20T01:30:59.427Z,89.67
2018-08-20T01:31:59.360Z,89.43
2018-08-20T01:32:59.284Z,89.43
2018-08-20T01:33:59.212Z,89.48
2018-08-20T01:34:59.141Z,89.14
2018-08-20T01:35:59.078Z,90.83
2018-08-20T01:36:58.998Z,91.69
2018-08-20T01:37:58.924Z,91.41
2018-08-20T01:38:58.869Z,91.41
2018-08-20T01:39:58.781Z,91.41
2018-08-20T01:40:58.710Z,91.99
2018-08-20T01:41:58.637Z,92.56
2018-08-20T01:42:58.562Z,91.41
2018-08-20T01:43:58.494Z,91.12
2018-08-20T01:44:58.422Z,90.54
2018-08-20T01:45:58.348Z,91.69
2018-08-20T01:46:58.284Z,91.69
2018-08-20T01:47:58.203Z,91.60
2018-08-20T01:48:58.132Z,91.99
2018-08-20T01:49:58.060Z,92.37
2018-08-20T01:50:57.987Z,92.27
2018-08-20T01:51:57.916Z,92.76
2018-08-20T01:52:57.844Z,92.27
2018-08-20T01:53:57.773Z,92.85
2018-08-20T01:54:57.704Z,93.43
2018-08-20T01:55:57.626Z,92.56
2018-08-20T01:56:57.557Z,92.76
2018-08-20T01:57:57.488Z,92.47
2018-08-20T01:58:57.410Z,92.76
2018-08-20T01:59:57.344Z,92.94
2018-08-20T02:00:57.275Z,93.43
2018-08-20T02:01:57.194Z,92.66
2018-08-20T02:02:57.121Z,93.38
2018-08-20T02:03:57.050Z,94.06
2018-08-20T02:04:56.977Z,93.87
2018-08-20T02:05:56.908Z,94.44
2018-08-20T02:06:56.833Z,95.02
2018-08-20T02:07:56.759Z,95.40
2018-08-20T02:08:56.686Z,95.50
2018-08-20T02:09:56.618Z,94.54
2018-08-20T02:10:56.545Z,93.96
2018-08-20T02:11:56.473Z,93.77
2018-08-20T02:12:56.400Z,93.38
2018-08-20T02:13:56.326Z,94.15
2018-08-20T02:14:56.253Z,94.73
2018-08-20T02:15:56.184Z,95.21
2018-08-20T02:16:56.113Z,94.54
2018-08-20T02:17:56.041Z,94.92
2018-08-20T02:18:55.966Z,94.73
2018-08-20T02:19:55.894Z,94.54
2018-08-20T02:20:55.822Z,95.12
2018-08-20T02:21:55.748Z,95.02
2018-08-20T02:22:55.675Z,96.37
2018-08-20T02:23:55.602Z,96.75
2018-08-20T02:24:55.530Z,97.24
2018-08-20T02:25:55.458Z,96.56
2018-08-20T02:26:55.385Z,95.40
2018-08-20T02:27:55.315Z,94.92
2018-08-20T02:28:55.241Z,95.60
2018-08-20T02:29:55.169Z,95.69
2018-08-20T02:30:55.097Z,95.69
2018-08-20T02:31:55.044Z,95.50
2018-08-20T02:32:54.952Z,94.44
2018-08-20T02:33:54.880Z,94.44
2018-08-20T02:34:54.806Z,95.12
2018-08-20T02:35:54.734Z,94.15
2018-08-20T02:36:54.662Z,94.54
2018-08-20T02:37:54.587Z,93.57
2018-08-20T02:38:54.516Z,93.96
2018-08-20T02:39:54.451Z,94.15
2018-08-20T02:40:54.369Z,94.44
2018-08-20T02:41:54.302Z,94.73
2018-08-20T02:42:54.227Z,95.31
2018-08-20T02:43:54.154Z,95.55
2018-08-20T02:44:54.081Z,95.55
2018-08-20T02:45:54.013Z,94.78
2018-08-20T02:46:53.938Z,94.97
2018-08-20T02:47:53.865Z,95.65
2018-08-20T02:48:53.790Z,95.36
2018-08-20T02:49:53.717Z,95.65
2018-08-20T02:50:53.648Z,95.65
2018-08-20T02:51:53.578Z,96.03
2018-08-20T02:52:53.499Z,95.45
2018-08-20T02:53:53.430Z,95.26
2018-08-20T02:54:53.355Z,94.30
2018-08-20T02:55:53.283Z,94.68
2018-08-20T02:56:53.214Z,94.73
2018-08-20T02:57:53.136Z,95.31
2018-08-20T02:58:53.068Z,94.73
2018-08-20T02:59:53.000Z,94.64
2018-08-20T03:00:52.920Z,93.77
2018-08-20T03:01:52.848Z,95.21
2018-08-20T03:02:52.780Z,94.15
2018-08-20T03:03:52.705Z,93.87
2018-08-20T03:04:52.637Z,94.30
2018-08-20T03:05:52.568Z,93.91
2018-08-20T03:06:52.485Z,94.68
2018-08-20T03:07:52.410Z,95.26
2018-08-20T03:08:52.344Z,94.49
2018-08-20T03:09:52.265Z,94.97
2018-08-20T03:10:52.197Z,94.68
2018-08-20T03:11:52.121Z,95.17
2018-08-20T03:12:52.048Z,94.40
2018-08-20T03:13:51.974Z,95.26
2018-08-20T03:14:51.904Z,95.07
2018-08-20T03:15:51.831Z,94.78
2018-08-20T03:16:51.767Z,95.26
2018-08-20T03:17:51.685Z,96.03
2018-08-20T03:18:51.611Z,97.09
2018-08-20T03:19:51.539Z,96.89
2018-08-20T03:20:51.471Z,95.94
2018-08-20T03:21:51.397Z,96.12
2018-08-20T03:22:51.322Z,95.84
2018-08-20T03:23:51.247Z,96.32
2018-08-20T03:24:51.179Z,96.70
2018-08-20T03:25:51.105Z,95.45
2018-08-20T03:26:51.031Z,97.28
2018-08-20T03:27:50.960Z,96.42
2018-08-20T03:28:50.888Z,97.19
2018-08-20T03:29:50.813Z,97.96
2018-08-20T03:30:50.746Z,97.19
2018-08-20T03:31:50.670Z,98.34
2018-08-20T03:32:50.596Z,98.92
2018-08-20T03:33:50.521Z,99.11
2018-08-20T03:34:50.451Z,98.14
2018-08-20T03:35:50.382Z,99.21
2018-08-20T03:36:50.305Z,98.82
2018-08-20T03:37:50.233Z,97.96
2018-08-20T03:38:50.158Z,98.34
2018-08-20T03:39:50.089Z,97.96
2018-08-20T03:40:50.015Z,97.67
2018-08-20T03:41:49.939Z,98.63
2018-08-20T03:42:49.867Z,97.96
2018-08-20T03:43:49.794Z,98.05
2018-08-20T03:44:49.726Z,97.28
2018-08-20T03:45:49.650Z,96.89
2018-08-20T03:46:49.576Z,98.05
2018-08-20T03:47:49.504Z,97.19
2018-08-20T03:48:49.437Z,96.99
2018-08-20T03:49:49.359Z,97.19
2018-08-20T03:50:49.287Z,96.70
2018-08-20T03:51:49.213Z,98.14
2018-08-20T03:52:49.140Z,98.14
2018-08-20T03:53:49.066Z,98.05
2018-08-20T03:54:48.994Z,97.28
2018-08-20T03:55:48.920Z,97.19
2018-08-20T03:56:48.852Z,97.19
2018-08-20T03:57:48.777Z,98.54
2018-08-20T03:58:48.701Z,98.24
2018-08-20T03:59:48.629Z,98.34
2018-08-20T04:00:48.556Z,96.89
2018-08-20T04:01:48.482Z,99.01
2018-08-20T04:02:48.412Z,99.69
2018-08-20T04:03:48.339Z,99.01
2018-08-20T04:04:48.265Z,99.88
2018-08-20T04:05:48.197Z,99.49
2018-08-20T04:06:48.121Z,99.98
2018-08-20T04:07:48.047Z,99.98
2018-08-20T04:08:47.973Z,99.88
2018-08-20T04:09:47.901Z,99.49
2018-08-20T04:10:47.832Z,99.30
2018-08-20T04:11:47.757Z,99.30
2018-08-20T04:12:47.684Z,99.98
2018-08-20T04:13:47.607Z,99.40
2018-08-20T04:14:47.537Z,99.99
2018-08-20T04:15:47.468Z,99.99
2018-08-20T04:16:47.392Z,99.99
2018-08-20T04:17:47.318Z,99.30
2018-08-20T04:18:47.246Z,99.99
2018-08-20T04:19:47.182Z,99.99
2018-08-20T04:20:47.100Z,99.99
2018-08-20T04:21:47.026Z,99.99
2018-08-20T04:22:46.952Z,99.99
2018-08-20T04:23:46.894Z,99.99
2018-08-20T04:24:46.822Z,99.99
2018-08-20T04:25:46.733Z,99.99
2018-08-20T04:26:46.665Z,99.99
2018-08-20T04:27:46.588Z,99.99
2018-08-20T04:28:46.516Z,99.99
2018-08-20T04:29:46.450Z,99.99
2018-08-20T04:30:46.417Z,99.99
2018-08-20T04:31:46.303Z,99.99
2018-08-20T04:32:46.225Z,99.99
2018-08-20T04:33:46.149Z,99.99
2018-08-20T04:34:46.080Z,99.99
2018-08-20T04:35:46.004Z,99.99
2018-08-20T04:36:45.933Z,99.99
2018-08-20T04:37:45.859Z,99.99
2018-08-20T04:38:45.787Z,99.99
2018-08-20T04:39:45.714Z,99.99
2018-08-20T04:40:45.640Z,99.99
2018-08-20T04:41:45.572Z,99.99
2018-08-20T04:42:45.498Z,99.99
2018-08-20T04:43:45.424Z,99.99
2018-08-20T04:44:45.352Z,99.99
2018-08-20T04:45:45.276Z,99.99
2018-08-20T04:46:45.202Z,99.99
2018-08-20T04:47:45.131Z,99.99
2018-08-20T04:48:45.064Z,99.99
2018-08-20T04:49:45.006Z,99.99
2018-08-20T04:50:45.011Z,99.99
2018-08-20T04:51:44.840Z,99.99
2018-08-20T04:52:44.770Z,99.99
2018-08-20T04:53:44.692Z,99.99
2018-08-20T04:54:44.622Z,99.99
2018-08-20T04:55:44.547Z,99.99
2018-08-20T04:56:44.475Z,99.99
2018-08-20T04:57:44.399Z,99.99
2018-08-20T04:58:44.328Z,99.99
2018-08-20T04:59:44.257Z,99.99
2018-08-20T05:00:44.183Z,99.99
2018-08-20T05:01:44.114Z,99.99
2018-08-20T05:02:44.039Z,99.99
2018-08-20T05:03:43.966Z,99.99
2018-08-20T05:04:43.891Z,99.99
2018-08-20T05:05:43.820Z,99.69
2018-08-20T05:06:43.748Z,99.49
2018-08-20T05:07:43.673Z,99.98
2018-08-20T05:08:43.604Z,99.78
2018-08-20T05:09:43.534Z,99.99
2018-08-20T05:10:43.456Z,99.49
2018-08-20T05:11:43.385Z,99.49
2018-08-20T05:12:43.312Z,99.78
2018-08-20T05:13:43.238Z,99.30
2018-08-20T05:14:43.169Z,97.96
2018-08-20T05:15:43.090Z,98.24
2018-08-20T05:16:43.020Z,99.30
2018-08-20T05:17:42.946Z,99.40
2018-08-20T05:18:42.886Z,98.63
2018-08-20T05:19:42.798Z,97.96
2018-08-20T05:20:42.728Z,98.14
2018-08-20T05:21:42.655Z,98.63
2018-08-20T05:22:42.582Z,98.24
2018-08-20T05:23:42.512Z,98.05
2018-08-20T05:24:42.446Z,96.99
2018-08-20T05:25:42.365Z,96.70
2018-08-20T05:26:42.293Z,96.80
2018-08-20T05:27:42.216Z,96.99
2018-08-20T05:28:42.143Z,97.28
2018-08-20T05:29:42.076Z,95.84
2018-08-20T05:30:42.000Z,96.03
2018-08-20T05:31:41.943Z,96.22
2018-08-20T05:32:41.859Z,96.32
2018-08-20T05:33:41.783Z,96.03
2018-08-20T05:34:41.712Z,96.61
2018-08-20T05:35:41.640Z,97.86
2018-08-20T05:36:41.562Z,96.99
2018-08-20T05:37:41.491Z,96.80
2018-08-20T05:38:41.420Z,97.86
2018-08-20T05:39:41.347Z,97.57
2018-08-20T05:40:41.283Z,98.24
2018-08-20T05:41:41.203Z,98.14
2018-08-20T05:42:41.131Z,98.05
2018-08-20T05:43:41.053Z,98.72
2018-08-20T05:44:41.002Z,97.86
2018-08-20T05:45:40.949Z,98.34
2018-08-20T05:46:40.837Z,97.76
2018-08-20T05:47:40.763Z,97.91
2018-08-20T05:48:40.697Z,97.81
2018-08-20T05:49:40.616Z,98.77
2018-08-20T05:50:40.548Z,99.44
2018-08-20T05:51:40.488Z,99.54
2018-08-20T05:52:40.449Z,99.54
2018-08-20T05:53:40.329Z,99.64
2018-08-20T05:54:40.255Z,97.81
2018-08-20T05:55:40.185Z,97.04
2018-08-20T05:56:40.111Z,96.56
2018-08-20T05:57:40.040Z,98.00
2018-08-20T05:58:39.971Z,96.85
2018-08-20T05:59:39.893Z,96.42
2018-08-20T06:00:39.825Z,95.36
2018-08-20T06:01:39.749Z,94.59
2018-08-20T06:02:39.675Z,93.33
2018-08-20T06:03:39.604Z,93.33
2018-08-20T06:04:39.534Z,94.29
2018-08-20T06:05:39.457Z,95.07
2018-08-20T06:06:39.389Z,92.71
2018-08-20T06:07:39.325Z,90.64
2018-08-20T06:08:39.243Z,90.88
2018-08-20T06:09:39.171Z,92.22
2018-08-20T06:10:39.109Z,92.13
2018-08-20T06:11:39.028Z,93.38
2018-08-20T06:12:38.955Z,95.31
2018-08-20T06:13:38.901Z,95.40
2018-08-20T06:14:38.822Z,93.96
2018-08-20T06:15:38.744Z,94.15
2018-08-20T06:16:38.667Z,93.19
2018-08-20T06:17:38.592Z,92.08
2018-08-20T06:18:38.538Z,92.27
2018-08-20T06:19:38.449Z,88.99
2018-08-20T06:20:38.382Z,86.68
2018-08-20T06:21:38.314Z,86.39
2018-08-20T06:22:38.329Z,82.62
2018-08-20T06:23:38.164Z,83.50
2018-08-20T06:24:38.099Z,85.61
2018-08-20T06:25:38.019Z,85.52
2018-08-20T06:26:37.948Z,78.71
2018-08-20T06:27:37.880Z,78.42
2018-08-20T06:28:37.863Z,78.13
2018-08-20T06:29:37.738Z,78.91
2018-08-20T06:30:37.665Z,78.71
2018-08-20T06:31:37.611Z,78.46
2018-08-20T06:32:37.542Z,76.34
2018-08-20T06:33:37.446Z,76.24
2018-08-20T06:34:37.375Z,75.47
2018-08-20T06:35:37.327Z,76.15
2018-08-20T06:36:37.231Z,75.57
2018-08-20T06:37:37.160Z,75.85
2018-08-20T06:38:37.088Z,74.79
2018-08-20T06:39:37.018Z,74.31
2018-08-20T06:40:36.948Z,74.54
2018-08-20T06:41:36.936Z,73.58
2018-08-20T06:42:36.807Z,74.16
2018-08-20T06:43:36.735Z,73.77
2018-08-20T06:44:36.669Z,72.80
2018-08-20T06:45:36.597Z,72.13
2018-08-20T06:46:36.519Z,71.94
2018-08-20T06:47:36.450Z,71.30
2018-08-20T06:48:36.403Z,70.81
2018-08-20T06:49:36.308Z,71.45
2018-08-20T06:50:36.234Z,71.88
2018-08-20T06:51:36.164Z,70.90
2018-08-20T06:52:36.096Z,71.55
2018-08-20T06:53:36.022Z,71.88
2018-08-20T06:54:35.972Z,71.30
2018-08-20T06:55:36.952Z,69.94
2018-08-20T06:56:35.808Z,69.94
2018-08-20T06:57:35.736Z,70.04
2018-08-20T06:58:35.670Z,70.32
2018-08-20T06:59:35.596Z,70.52
2018-08-20T07:00:35.525Z,70.04
2018-08-20T07:01:35.455Z,69.94
2018-08-20T07:02:35.382Z,70.04
2018-08-20T07:03:35.314Z,70.14
2018-08-20T07:04:35.244Z,69.40
2018-08-20T07:05:35.172Z,69.20
2018-08-20T07:06:35.110Z,68.43
2018-08-20T07:07:35.030Z,67.75
2018-08-20T07:08:34.964Z,68.04
2018-08-20T07:09:34.900Z,67.85
2018-08-20T07:10:34.823Z,66.30
2018-08-20T07:11:34.763Z,66.11
2018-08-20T07:12:34.754Z,65.63
2018-08-20T07:13:34.672Z,65.34
2018-08-20T07:14:34.615Z,65.24
2018-08-20T07:15:34.524Z,64.95
2018-08-20T07:16:34.480Z,64.69
2018-08-20T07:17:34.421Z,64.31
2018-08-20T07:18:34.291Z,64.40
2018-08-20T07:19:34.293Z,64.11
2018-08-20T07:20:34.118Z,64.79
2018-08-20T07:21:34.103Z,64.01
2018-08-20T07:22:34.030Z,63.76
2018-08-20T07:23:34.132Z,62.40
2018-08-20T07:24:33.919Z,62.59
2018-08-20T07:25:33.831Z,62.59
2018-08-20T07:26:33.779Z,62.50
2018-08-20T07:27:33.712Z,62.30
2018-08-20T07:28:33.626Z,61.92
2018-08-20T07:29:33.560Z,61.53
2018-08-20T07:30:33.481Z,61.15
2018-08-20T07:31:33.405Z,61.43
2018-08-20T07:32:33.331Z,61.53
2018-08-20T07:33:33.299Z,61.92
2018-08-20T07:34:33.192Z,61.82
2018-08-20T07:35:33.130Z,62.11
2018-08-20T07:36:33.066Z,62.11
2018-08-20T07:37:32.990Z,61.92
2018-08-20T07:38:32.937Z,61.72
2018-08-20T07:39:32.838Z,61.24
2018-08-20T07:40:32.782Z,61.18
2018-08-20T07:41:32.724Z,61.95
2018-08-20T07:42:33.642Z,61.56
2018-08-20T07:43:32.576Z,61.43
2018-08-20T07:44:32.518Z,61.27
2018-08-20T07:45:32.423Z,61.56
2018-08-20T07:46:32.298Z,60.98
2018-08-20T07:47:32.286Z,61.08
2018-08-20T07:48:32.207Z,61.76
2018-08-20T07:49:32.802Z,60.69
2018-08-20T07:50:32.064Z,60.88
2018-08-20T07:51:33.017Z,61.30
2018-08-20T07:52:31.924Z,61.01
2018-08-20T07:53:31.857Z,61.40
2018-08-20T07:54:31.800Z,61.01
2018-08-20T07:55:31.753Z,60.40
2018-08-20T07:56:33.321Z,61.08
2018-08-20T07:57:31.578Z,60.43
2018-08-20T07:58:31.452Z,60.33
2018-08-20T07:59:31.375Z,60.82
2018-08-20T08:00:31.304Z,60.14
2018-08-20T08:01:31.238Z,60.14
2018-08-20T08:02:31.179Z,59.84
2018-08-20T08:03:31.119Z,58.98
2018-08-20T08:04:31.069Z,58.98
2018-08-20T08:05:30.959Z,58.88
2018-08-20T08:06:30.902Z,59.27
2018-08-20T08:07:30.823Z,58.88
2018-08-20T08:08:30.750Z,58.78
2018-08-20T08:09:30.676Z,58.01
2018-08-20T08:10:30.608Z,57.33
2018-08-20T08:11:30.541Z,56.77
2018-08-20T08:12:30.466Z,55.81
2018-08-20T08:13:30.398Z,55.52
2018-08-20T08:14:30.330Z,56.20
2018-08-20T08:15:30.267Z,56.10
2018-08-20T08:16:30.189Z,56.41
2018-08-20T08:17:30.123Z,56.00
2018-08-20T08:18:30.051Z,56.61
2018-08-20T08:19:29.984Z,56.32
2018-08-20T08:20:29.912Z,55.54
2018-08-20T08:21:29.843Z,54.86
2018-08-20T08:22:29.777Z,54.86
2018-08-20T08:23:29.708Z,53.70
2018-08-20T08:24:29.632Z,53.22
2018-08-20T08:25:29.565Z,52.64
2018-08-20T08:26:29.551Z,53.31
2018-08-20T08:27:29.431Z,53.12
2018-08-20T08:28:29.354Z,52.34
2018-08-20T08:29:29.290Z,52.06
2018-08-20T08:30:29.218Z,52.44
2018-08-20T08:31:29.158Z,51.47
2018-08-20T08:32:29.082Z,51.67
2018-08-20T08:33:29.007Z,51.31
2018-08-20T08:34:28.942Z,51.37
2018-08-20T08:35:28.873Z,51.40
2018-08-20T08:36:28.805Z,51.21
2018-08-20T08:37:28.736Z,51.31
2018-08-20T08:38:28.663Z,52.08
2018-08-20T08:39:28.593Z,51.59
2018-08-20T08:40:28.527Z,52.18
2018-08-20T08:41:28.455Z,51.59
2018-08-20T08:42:28.385Z,51.21
2018-08-20T08:43:28.315Z,52.76
2018-08-20T08:44:28.245Z,51.50
2018-08-20T08:45:28.176Z,50.36
2018-08-20T08:46:28.109Z,49.19
2018-08-20T08:47:28.041Z,49.19
2018-08-20T08:48:27.970Z,49.29
2018-08-20T08:49:27.903Z,49.00
2018-08-20T08:50:27.834Z,48.42
2018-08-20T08:51:27.761Z,47.74
2018-08-20T08:52:27.698Z,47.64
2018-08-20T08:53:27.636Z,47.86
2018-08-20T08:54:27.558Z,47.76
2018-08-20T08:55:27.486Z,48.54
2018-08-20T08:56:27.434Z,47.96
2018-08-20T08:57:27.360Z,47.57
2018-08-20T08:58:27.281Z,47.66
2018-08-20T08:59:27.220Z,47.30
2018-08-20T09:00:27.220Z,47.38
2018-08-20T09:01:27.078Z,47.49
2018-08-20T09:02:27.011Z,46.89
2018-08-20T09:03:26.936Z,47.40
2018-08-20T09:04:26.870Z,48.08
2018-08-20T09:05:26.802Z,47.49
2018-08-20T09:06:26.731Z,47.40
2018-08-20T09:07:26.689Z,47.49
2018-08-20T09:08:26.598Z,47.30
2018-08-20T09:09:26.525Z,47.20
2018-08-20T09:10:26.492Z,47.49
2018-08-20T09:11:26.386Z,47.49
2018-08-20T09:12:26.328Z,48.18
2018-08-20T09:13:26.256Z,48.66
2018-08-20T09:14:26.184Z,48.37
2018-08-20T09:15:26.114Z,47.78
2018-08-20T09:16:26.051Z,47.40
2018-08-20T09:17:25.978Z,48.37
2018-08-20T09:18:25.910Z,48.20
2018-08-20T09:19:25.845Z,48.18
2018-08-20T09:20:25.773Z,47.52
2018-08-20T09:21:25.701Z,47.52
2018-08-20T09:22:25.635Z,47.42
2018-08-20T09:23:25.567Z,47.61
2018-08-20T09:24:25.511Z,47.42
2018-08-20T09:25:32.648Z,47.52
2018-08-20T09:27:29.309Z,46.64
2018-08-20T09:28:29.190Z,46.84
2018-08-20T09:29:29.124Z,46.74
2018-08-20T09:30:29.054Z,47.81
2018-08-20T09:31:28.984Z,46.64
2018-08-20T09:32:28.918Z,46.55
2018-08-20T09:33:28.848Z,46.06
2018-08-20T09:34:28.780Z,45.97
2018-08-20T09:35:28.712Z,46.55
2018-08-20T09:36:28.650Z,46.94
2018-08-20T09:37:28.576Z,46.15
2018-08-20T09:38:28.508Z,46.35
2018-08-20T09:39:28.447Z,46.84
2018-08-20T09:40:28.371Z,46.94
2018-08-20T09:41:28.303Z,47.52
2018-08-20T09:42:28.234Z,46.57
2018-08-20T09:43:28.172Z,46.86
2018-08-20T09:44:28.100Z,46.86
2018-08-20T09:45:28.036Z,47.25
2018-08-20T09:46:27.961Z,47.44
2018-08-20T09:47:27.895Z,47.74
2018-08-20T09:48:27.826Z,47.44
2018-08-20T09:49:27.758Z,47.54
2018-08-20T09:50:27.688Z,46.57
2018-08-20T09:51:27.621Z,45.50
2018-08-20T09:52:27.552Z,45.31
2018-08-20T09:53:27.494Z,44.62
2018-08-20T09:54:27.416Z,45.50
2018-08-20T09:55:27.350Z,45.01
2018-08-20T09:56:27.287Z,45.31
2018-08-20T09:57:27.215Z,44.72
2018-08-20T09:58:27.145Z,45.32
2018-08-20T09:59:27.081Z,45.60
2018-08-20T10:00:27.010Z,45.11
2018-08-20T10:01:26.942Z,46.30
2018-08-20T10:02:26.880Z,45.81
2018-08-20T10:03:26.805Z,44.74
2018-08-20T10:04:26.743Z,43.87
2018-08-20T10:05:26.678Z,44.06
2018-08-20T10:06:26.603Z,45.23
2018-08-20T10:07:26.586Z,45.04
2018-08-20T10:08:26.465Z,44.74
2018-08-20T10:09:26.397Z,44.74
2018-08-20T10:10:26.328Z,45.04
2018-08-20T10:11:26.261Z,44.94
2018-08-20T10:12:26.193Z,43.40
2018-08-20T10:13:26.126Z,43.01
2018-08-20T10:14:26.063Z,43.50
2018-08-20T10:15:25.998Z,43.21
2018-08-20T10:16:25.924Z,42.14
2018-08-20T10:17:25.858Z,42.43
2018-08-20T10:18:25.810Z,42.91
2018-08-20T10:19:25.722Z,43.30
2018-08-20T10:20:25.652Z,42.33
2018-08-20T10:21:25.585Z,43.13
2018-08-20T10:22:25.519Z,43.13
2018-08-20T10:23:25.450Z,41.77
2018-08-20T10:24:25.382Z,41.67
2018-08-20T10:25:25.318Z,41.96
2018-08-20T10:26:25.247Z,41.77
2018-08-20T10:27:25.177Z,42.45
2018-08-20T10:28:25.114Z,43.23
2018-08-20T10:29:25.049Z,42.65
2018-08-20T10:30:24.976Z,42.35
2018-08-20T10:31:24.907Z,41.79
2018-08-20T10:32:24.845Z,41.99
2018-08-20T10:33:24.772Z,41.69
2018-08-20T10:34:24.707Z,40.72
2018-08-20T10:35:24.637Z,41.40
2018-08-20T10:36:24.573Z,41.89
2018-08-20T10:37:24.504Z,41.79
2018-08-20T10:38:24.437Z,41.61
2018-08-20T10:39:24.368Z,40.62
2018-08-20T10:40:24.300Z,41.42
2018-08-20T10:41:24.239Z,40.93
2018-08-20T10:42:24.167Z,40.55
2018-08-20T10:43:24.099Z,40.93
2018-08-20T10:44:24.036Z,40.37
2018-08-20T10:45:23.966Z,41.13
2018-08-20T10:46:23.899Z,40.83
2018-08-20T10:47:23.837Z,40.64
2018-08-20T10:48:23.767Z,40.93
2018-08-20T10:49:23.697Z,40.83
2018-08-20T10:50:23.634Z,41.22
2018-08-20T10:51:23.564Z,40.83
2018-08-20T10:52:23.496Z,41.52
2018-08-20T10:53:23.430Z,40.93
2018-08-20T10:54:23.367Z,41.13
2018-08-20T10:55:23.302Z,40.73
2018-08-20T10:56:23.309Z,41.03
2018-08-20T10:57:23.167Z,39.96
2018-08-20T10:58:23.096Z,40.16
2018-08-20T10:59:23.028Z,40.08
2018-08-20T11:00:22.962Z,40.86
2018-08-20T11:01:22.894Z,41.15
2018-08-20T11:02:22.831Z,40.95
2018-08-20T11:03:22.760Z,40.17
2018-08-20T11:04:22.694Z,40.08
2018-08-20T11:05:22.627Z,40.08
2018-08-20T11:06:22.560Z,40.00
2018-08-20T11:07:22.499Z,39.80
2018-08-20T11:08:22.429Z,40.09
2018-08-20T11:09:22.364Z,40.29
2018-08-20T11:10:22.293Z,41.07
2018-08-20T11:11:22.230Z,41.95
2018-08-20T11:12:22.165Z,40.31
2018-08-20T11:13:22.097Z,40.31
2018-08-20T11:14:22.032Z,39.92
2018-08-20T11:15:21.960Z,39.92
2018-08-20T11:16:21.897Z,39.62
2018-08-20T11:17:21.835Z,39.36
2018-08-20T11:18:21.830Z,38.55
2018-08-20T11:19:21.695Z,38.55
2018-08-20T11:20:21.631Z,38.45
2018-08-20T11:21:21.563Z,38.84
2018-08-20T11:22:21.498Z,39.23
2018-08-20T11:23:21.430Z,38.82
2018-08-20T11:24:21.366Z,39.02
2018-08-20T11:25:21.298Z,40.00
2018-08-20T11:26:21.235Z,40.00
2018-08-20T11:27:21.165Z,39.51
2018-08-20T11:28:21.098Z,39.51
2018-08-20T11:29:21.033Z,39.12
2018-08-20T11:30:21.069Z,38.24
2018-08-20T11:31:20.900Z,38.24
2018-08-20T11:32:20.834Z,38.82
2018-08-20T11:33:20.768Z,38.92
2018-08-20T11:34:20.701Z,39.14
2018-08-20T11:35:20.634Z,38.65
2018-08-20T11:36:20.569Z,38.75
2018-08-20T11:37:20.505Z,38.65
2018-08-20T11:38:20.435Z,38.16
2018-08-20T11:39:20.373Z,37.96
2018-08-20T11:40:20.304Z,38.28
2018-08-20T11:41:20.236Z,38.77
2018-08-20T11:42:20.170Z,37.30
2018-08-20T11:43:20.151Z,37.30
2018-08-20T11:44:20.042Z,37.50
2018-08-20T11:45:19.978Z,37.70
2018-08-20T11:46:19.908Z,37.50
2018-08-20T11:47:19.840Z,37.12
2018-08-20T11:48:19.772Z,35.94
2018-08-20T11:49:19.707Z,36.23
2018-08-20T11:50:19.641Z,36.62
2018-08-20T11:51:19.579Z,37.11
2018-08-20T11:52:19.512Z,36.62
2018-08-20T11:53:19.467Z,36.43
2018-08-20T11:54:19.378Z,36.43
2018-08-20T11:55:19.311Z,37.12
2018-08-20T11:56:19.248Z,36.44
2018-08-20T11:57:19.180Z,37.12
2018-08-20T11:58:19.117Z,37.24
2018-08-20T11:59:19.049Z,35.97
2018-08-20T12:00:18.979Z,37.14
2018-08-20T12:01:18.920Z,36.65
2018-08-20T12:02:18.850Z,36.36
2018-08-20T12:03:18.783Z,35.50
2018-08-20T12:04:18.717Z,35.89
2018-08-20T12:05:18.656Z,35.99
2018-08-20T12:06:18.588Z,35.99
2018-08-20T12:07:18.524Z,36.08
2018-08-20T12:08:18.455Z,35.01
2018-08-20T12:09:18.390Z,35.03
2018-08-20T12:10:18.328Z,35.22
2018-08-20T12:11:18.280Z,34.64
2018-08-20T12:12:18.194Z,34.74
2018-08-20T12:13:18.136Z,34.14
2018-08-20T12:14:18.064Z,34.34
2018-08-20T12:15:18.012Z,34.74
2018-08-20T12:16:17.945Z,34.44
2018-08-20T12:17:17.889Z,33.56
2018-08-20T12:18:17.811Z,33.75
2018-08-20T12:19:17.745Z,32.99
2018-08-20T12:20:17.683Z,33.46
2018-08-20T12:21:17.623Z,32.51
2018-08-20T12:22:17.567Z,32.53
2018-08-20T12:23:17.525Z,31.19
2018-08-20T12:24:17.437Z,31.30
2018-08-20T12:25:17.380Z,30.55
2018-08-20T12:26:17.317Z,29.68
2018-08-20T12:27:17.256Z,29.30
2018-08-20T12:28:17.205Z,28.83
2018-08-20T12:29:17.139Z,28.36
2018-08-20T12:30:17.080Z,27.09
2018-08-20T12:31:17.022Z,28.19
2018-08-20T12:32:16.963Z,27.33
2018-08-20T12:33:16.910Z,26.25
2018-08-20T12:34:16.863Z,25.87
2018-08-20T12:35:16.791Z,24.67
2018-08-20T12:36:16.735Z,25.97
2018-08-20T12:37:16.676Z,25.38
2018-08-20T12:38:16.621Z,24.49
2018-08-20T12:39:16.564Z,24.60
2018-08-20T12:40:16.576Z,24.91
2018-08-20T12:41:16.457Z,23.44
2018-08-20T12:42:16.398Z,23.94
2018-08-20T12:43:16.342Z,23.06
2018-08-20T12:44:16.288Z,22.86
2018-08-20T12:45:16.232Z,22.28
2018-08-20T12:46:16.180Z,21.69
2018-08-20T12:47:16.129Z,21.67
2018-08-20T12:48:16.070Z,21.48
2018-08-20T12:49:16.016Z,21.47
2018-08-20T12:50:15.961Z,22.67
2018-08-20T12:51:15.904Z,22.37
2018-08-20T12:52:15.849Z,22.07